Portada
METAR-TAF:

METAR-TAF

Aeroports :

Grosse Ile Municipal Airport

Detroit-Grosse Ile, Michigan, Estats Units d'Amèrica

latitud: 42-05-55N, longitud: 083-09-40W, altitud: 180 m

Observació

L'informe es va fer fa 14 minuts, a les 05:36 UTC
Vent 14 kt del Oest amb ràfegues de 24 kt
Temperatura 9°C
Humitat 57%
Pressió 1009 hPa
Visibilitat: 16.1 km
Núvols disperses a una alçada de 3900 ft
Cel cobert a una alçada de 7500 ft

METAR: KONZ 300536Z AUTO 26014G24KT 10SM SCT039 OVC075 09/01 A2980 RMK AO2 T00850013

Hora: 01:50 (05:50 UTC)


TAF: manca

Observacions i pronòstics meteorològics de més de 4000 aeroports (METAR i TAF).

Les estacions disponibles són els punts grocs i vermells al mapa.

Posi el ratolí al punt desitjat per veure el nom de l'estació.

Feu clic per veure les observacions i els pronòstics meteorològics.

Per canviar el mapa: feu clic els botons verds amb una creu de color negre per apropar; al botó verd amb un guió per allunyar la imatge; o en les fletxes verdes per a mapes adjacents.


METAR-TAF: